createdAt,value
2023-08-27T00:00:09.521Z,976.78
2023-08-27T00:01:09.568Z,976.75
2023-08-27T00:02:09.576Z,976.71
2023-08-27T00:03:09.562Z,976.69
2023-08-27T00:04:09.591Z,976.67
2023-08-27T00:05:09.496Z,976.60
2023-08-27T00:06:09.544Z,976.48
2023-08-27T00:07:09.451Z,976.48
2023-08-27T00:08:09.524Z,976.46
2023-08-27T00:09:09.502Z,976.46
2023-08-27T00:10:09.539Z,976.59
2023-08-27T00:11:10.538Z,976.57
2023-08-27T00:12:09.394Z,976.69
2023-08-27T00:13:09.400Z,976.72
2023-08-27T00:14:09.398Z,976.64
2023-08-27T00:15:09.397Z,976.59
2023-08-27T00:16:09.398Z,976.49
2023-08-27T00:17:09.363Z,976.47
2023-08-27T00:18:09.406Z,976.46
2023-08-27T00:19:09.529Z,976.49
2023-08-27T00:20:09.434Z,976.57
2023-08-27T00:21:09.296Z,976.56
2023-08-27T00:22:09.727Z,976.55
2023-08-27T00:23:09.283Z,976.54
2023-08-27T00:24:09.400Z,976.55
2023-08-27T00:25:09.255Z,976.65
2023-08-27T00:26:09.251Z,976.59
2023-08-27T00:27:09.259Z,976.59
2023-08-27T00:28:09.215Z,976.57
2023-08-27T00:29:09.261Z,976.59
2023-08-27T00:30:09.201Z,976.58
2023-08-27T00:31:09.237Z,976.56
2023-08-27T00:32:23.067Z,976.50
2023-08-27T00:33:10.209Z,976.49
2023-08-27T00:34:09.159Z,976.45
2023-08-27T00:35:09.150Z,976.45
2023-08-27T00:36:09.140Z,976.47
2023-08-27T00:37:09.142Z,976.46
2023-08-27T00:38:09.113Z,976.57
2023-08-27T00:39:09.104Z,976.52
2023-08-27T00:40:09.100Z,976.49
2023-08-27T00:41:09.110Z,976.43
2023-08-27T00:42:09.071Z,976.45
2023-08-27T00:43:09.064Z,976.46
2023-08-27T00:44:09.048Z,976.33
2023-08-27T00:45:09.053Z,976.23
2023-08-27T00:46:09.072Z,976.18
2023-08-27T00:47:09.021Z,976.11
2023-08-27T00:48:09.001Z,976.14
2023-08-27T00:49:09.005Z,976.16
2023-08-27T00:50:09.015Z,976.08
2023-08-27T00:51:08.976Z,976.08
2023-08-27T00:52:08.968Z,976.04
2023-08-27T00:53:08.954Z,975.96
2023-08-27T00:54:08.936Z,975.95
2023-08-27T00:55:08.949Z,975.97
2023-08-27T00:56:08.916Z,975.96
2023-08-27T00:57:08.913Z,976.00
2023-08-27T00:58:08.896Z,975.86
2023-08-27T00:59:08.908Z,975.98
2023-08-27T01:00:08.888Z,976.06
2023-08-27T01:01:08.897Z,976.12
2023-08-27T01:02:08.906Z,976.09
2023-08-27T01:03:08.878Z,976.14
2023-08-27T01:04:08.840Z,976.18
2023-08-27T01:05:08.824Z,976.13
2023-08-27T01:06:08.821Z,976.14
2023-08-27T01:07:08.800Z,976.03
2023-08-27T01:08:08.786Z,975.99
2023-08-27T01:09:08.792Z,975.91
2023-08-27T01:10:08.778Z,975.99
2023-08-27T01:11:08.762Z,976.01
2023-08-27T01:12:08.745Z,976.00
2023-08-27T01:13:08.917Z,976.05
2023-08-27T01:14:08.748Z,976.01
2023-08-27T01:15:08.727Z,975.96
2023-08-27T01:16:08.826Z,975.90
2023-08-27T01:17:08.697Z,975.86
2023-08-27T01:18:08.749Z,975.85
2023-08-27T01:19:08.677Z,975.85
2023-08-27T01:20:08.661Z,975.87
2023-08-27T01:21:08.666Z,975.91
2023-08-27T01:22:08.657Z,975.97
2023-08-27T01:23:08.658Z,975.97
2023-08-27T01:24:08.623Z,975.97
2023-08-27T01:25:08.623Z,975.94
2023-08-27T01:26:08.630Z,975.85
2023-08-27T01:27:08.642Z,975.83
2023-08-27T01:28:08.633Z,975.94
2023-08-27T01:29:08.600Z,975.96
2023-08-27T01:30:08.590Z,976.07
2023-08-27T01:31:08.652Z,976.05
2023-08-27T01:32:08.567Z,976.01
2023-08-27T01:33:08.597Z,975.99
2023-08-27T01:34:08.529Z,975.96
2023-08-27T01:35:08.531Z,975.85
2023-08-27T01:36:08.505Z,975.82
2023-08-27T01:37:08.599Z,975.94
2023-08-27T01:38:40.407Z,976.03
2023-08-27T01:39:08.486Z,975.95
2023-08-27T01:40:08.471Z,976.02
2023-08-27T01:41:08.486Z,976.08
2023-08-27T01:42:08.529Z,976.10
2023-08-27T01:43:08.436Z,976.06
2023-08-27T01:44:08.426Z,976.14
2023-08-27T01:45:08.434Z,976.21
2023-08-27T01:46:08.477Z,976.15
2023-08-27T01:47:08.387Z,976.17
2023-08-27T01:48:08.382Z,976.14
2023-08-27T01:49:08.373Z,976.15
2023-08-27T01:50:08.442Z,976.14
2023-08-27T01:51:08.382Z,976.14
2023-08-27T01:52:08.343Z,976.16
2023-08-27T01:53:08.323Z,976.10
2023-08-27T01:54:08.317Z,976.08
2023-08-27T01:55:08.322Z,976.05
2023-08-27T01:56:08.329Z,976.10
2023-08-27T01:57:08.295Z,976.15
2023-08-27T01:58:08.266Z,976.12
2023-08-27T01:59:08.257Z,976.18
2023-08-27T02:00:08.280Z,976.23
2023-08-27T02:01:08.244Z,976.27
2023-08-27T02:02:08.280Z,976.23
2023-08-27T02:03:08.286Z,976.22
2023-08-27T02:04:08.208Z,976.25
2023-08-27T02:05:08.239Z,976.14
2023-08-27T02:06:08.187Z,976.17
2023-08-27T02:07:08.173Z,976.16
2023-08-27T02:08:08.178Z,976.11
2023-08-27T02:09:08.183Z,976.10
2023-08-27T02:10:08.203Z,976.00
2023-08-27T02:11:08.141Z,975.94
2023-08-27T02:12:08.118Z,975.98
2023-08-27T02:13:08.119Z,976.03
2023-08-27T02:14:08.120Z,976.03
2023-08-27T02:15:08.251Z,976.04
2023-08-27T02:16:08.140Z,975.97
2023-08-27T02:17:08.076Z,975.94
2023-08-27T02:18:08.119Z,975.96
2023-08-27T02:19:08.066Z,975.89
2023-08-27T02:20:08.115Z,975.93
2023-08-27T02:21:08.031Z,975.92
2023-08-27T02:22:08.015Z,975.92
2023-08-27T02:23:08.063Z,975.94
2023-08-27T02:24:08.005Z,975.93
2023-08-27T02:25:07.994Z,975.88
2023-08-27T02:26:07.991Z,975.86
2023-08-27T02:27:07.986Z,975.86
2023-08-27T02:28:07.978Z,975.84
2023-08-27T02:29:07.975Z,975.81
2023-08-27T02:30:07.931Z,975.84
2023-08-27T02:31:07.996Z,975.80
2023-08-27T02:32:07.942Z,975.80
2023-08-27T02:33:07.956Z,975.80
2023-08-27T02:34:07.897Z,975.86
2023-08-27T02:35:07.891Z,975.76
2023-08-27T02:36:07.873Z,975.82
2023-08-27T02:37:07.888Z,975.73
2023-08-27T02:38:07.853Z,975.72
2023-08-27T02:39:07.845Z,975.71
2023-08-27T02:40:07.851Z,975.66
2023-08-27T02:41:07.823Z,975.71
2023-08-27T02:42:08.044Z,975.60
2023-08-27T02:43:07.809Z,975.54
2023-08-27T02:44:07.786Z,975.45
2023-08-27T02:45:07.787Z,975.46
2023-08-27T02:46:08.080Z,975.50
2023-08-27T02:47:07.789Z,975.60
2023-08-27T02:48:07.852Z,975.49
2023-08-27T02:49:07.733Z,975.58
2023-08-27T02:50:07.740Z,975.53
2023-08-27T02:51:07.726Z,975.57
2023-08-27T02:52:07.707Z,975.56
2023-08-27T02:53:07.692Z,975.64
2023-08-27T02:54:07.677Z,975.64
2023-08-27T02:55:07.679Z,975.61
2023-08-27T02:56:07.679Z,975.56
2023-08-27T02:57:07.644Z,975.55
2023-08-27T02:58:07.643Z,975.56
2023-08-27T02:59:07.626Z,975.50
2023-08-27T03:00:07.664Z,975.48
2023-08-27T03:01:07.606Z,975.56
2023-08-27T03:02:07.643Z,975.60
2023-08-27T03:03:07.635Z,975.56
2023-08-27T03:04:07.569Z,975.61
2023-08-27T03:05:07.595Z,975.65
2023-08-27T03:06:07.550Z,975.63
2023-08-27T03:07:07.549Z,975.64
2023-08-27T03:08:07.545Z,975.62
2023-08-27T03:09:07.534Z,975.55
2023-08-27T03:10:07.524Z,975.63
2023-08-27T03:11:07.502Z,975.53
2023-08-27T03:12:07.490Z,975.45
2023-08-27T03:13:07.480Z,975.45
2023-08-27T03:14:07.499Z,975.40
2023-08-27T03:15:07.482Z,975.47
2023-08-27T03:16:07.544Z,975.39
2023-08-27T03:17:07.446Z,975.38
2023-08-27T03:18:07.442Z,975.34
2023-08-27T03:19:07.448Z,975.39
2023-08-27T03:20:07.423Z,975.30
2023-08-27T03:21:07.401Z,975.36
2023-08-27T03:22:07.389Z,975.36
2023-08-27T03:23:10.046Z,975.35
2023-08-27T03:24:07.394Z,975.45
2023-08-27T03:25:07.366Z,975.47
2023-08-27T03:26:07.345Z,975.51
2023-08-27T03:27:07.334Z,975.51
2023-08-27T03:28:07.347Z,975.46
2023-08-27T03:29:07.342Z,975.48
2023-08-27T03:30:07.306Z,975.48
2023-08-27T03:31:07.315Z,975.45
2023-08-27T03:32:07.291Z,975.43
2023-08-27T03:33:07.304Z,975.43
2023-08-27T03:34:07.263Z,975.34
2023-08-27T03:35:07.258Z,975.36
2023-08-27T03:36:07.255Z,975.38
2023-08-27T03:37:07.227Z,975.33
2023-08-27T03:38:07.252Z,975.29
2023-08-27T03:39:07.213Z,975.37
2023-08-27T03:40:07.245Z,975.39
2023-08-27T03:41:07.199Z,975.37
2023-08-27T03:42:07.186Z,975.42
2023-08-27T03:43:07.188Z,975.40
2023-08-27T03:44:07.177Z,975.48
2023-08-27T03:45:07.154Z,975.44
2023-08-27T03:46:07.193Z,975.46
2023-08-27T03:47:07.147Z,975.42
2023-08-27T03:48:07.119Z,975.45
2023-08-27T03:49:07.095Z,975.51
2023-08-27T03:50:07.212Z,975.54
2023-08-27T03:51:07.080Z,975.55
2023-08-27T03:52:07.099Z,975.60
2023-08-27T03:53:07.066Z,975.56
2023-08-27T03:54:07.055Z,975.54
2023-08-27T03:55:07.051Z,975.47
2023-08-27T03:56:07.050Z,975.55
2023-08-27T03:57:07.047Z,975.56
2023-08-27T03:58:07.005Z,975.61
2023-08-27T03:59:07.023Z,975.61
2023-08-27T04:00:07.002Z,975.65
2023-08-27T04:01:07.011Z,975.65
2023-08-27T04:02:06.974Z,975.69
2023-08-27T04:03:06.994Z,975.73
2023-08-27T04:04:07.027Z,975.81
2023-08-27T04:05:06.924Z,975.83
2023-08-27T04:06:06.952Z,975.76
2023-08-27T04:07:06.952Z,975.68
2023-08-27T04:08:06.920Z,975.64
2023-08-27T04:09:06.910Z,975.56
2023-08-27T04:10:06.910Z,975.58
2023-08-27T04:11:06.893Z,975.69
2023-08-27T04:12:06.857Z,975.67
2023-08-27T04:13:06.842Z,975.59
2023-08-27T04:14:06.845Z,975.61
2023-08-27T04:15:06.845Z,975.57
2023-08-27T04:16:06.877Z,975.55
2023-08-27T04:17:06.808Z,975.57
2023-08-27T04:18:06.902Z,975.63
2023-08-27T04:19:06.826Z,975.66
2023-08-27T04:20:07.127Z,975.68
2023-08-27T04:21:06.775Z,975.63
2023-08-27T04:22:06.756Z,975.63
2023-08-27T04:23:06.754Z,975.63
2023-08-27T04:24:06.762Z,975.67
2023-08-27T04:25:06.743Z,975.67
2023-08-27T04:26:06.724Z,975.69
2023-08-27T04:27:06.721Z,975.62
2023-08-27T04:28:06.693Z,975.56
2023-08-27T04:29:06.712Z,975.56
2023-08-27T04:30:06.670Z,975.57
2023-08-27T04:31:06.672Z,975.49
2023-08-27T04:32:06.653Z,975.53
2023-08-27T04:33:06.694Z,975.54
2023-08-27T04:34:06.671Z,975.56
2023-08-27T04:35:06.624Z,975.58
2023-08-27T04:36:06.609Z,975.55
2023-08-27T04:37:06.599Z,975.55
2023-08-27T04:38:06.603Z,975.54
2023-08-27T04:39:06.592Z,975.50
2023-08-27T04:40:06.566Z,975.53
2023-08-27T04:41:06.557Z,975.56
2023-08-27T04:42:06.546Z,975.63
2023-08-27T04:43:06.572Z,975.60
2023-08-27T04:44:06.523Z,975.51
2023-08-27T04:45:06.520Z,975.49
2023-08-27T04:46:06.557Z,975.53
2023-08-27T04:47:06.491Z,975.49
2023-08-27T04:48:06.609Z,975.46
2023-08-27T04:49:06.472Z,975.46
2023-08-27T04:50:06.465Z,975.46
2023-08-27T04:51:06.455Z,975.41
2023-08-27T04:52:12.832Z,975.38
2023-08-27T04:53:06.451Z,975.41
2023-08-27T04:54:06.426Z,975.40
2023-08-27T04:55:06.408Z,975.47
2023-08-27T04:56:06.408Z,975.42
2023-08-27T04:57:06.408Z,975.42
2023-08-27T04:58:06.835Z,975.52
2023-08-27T04:59:06.375Z,975.48
2023-08-27T05:00:06.350Z,975.42
2023-08-27T05:01:06.390Z,975.44
2023-08-27T05:02:06.347Z,975.40
2023-08-27T05:03:06.453Z,975.42
2023-08-27T05:04:06.311Z,975.35
2023-08-27T05:05:06.305Z,975.32
2023-08-27T05:06:06.304Z,975.30
2023-08-27T05:07:06.306Z,975.27
2023-08-27T05:08:06.276Z,975.32
2023-08-27T05:09:06.263Z,975.36
2023-08-27T05:10:06.241Z,975.31
2023-08-27T05:11:06.253Z,975.36
2023-08-27T05:12:06.234Z,975.34
2023-08-27T05:13:06.867Z,975.32
2023-08-27T05:14:06.207Z,975.32
2023-08-27T05:15:06.352Z,975.29
2023-08-27T05:16:06.249Z,975.29
2023-08-27T05:17:06.172Z,975.25
2023-08-27T05:18:06.228Z,975.28
2023-08-27T05:19:06.151Z,975.40
2023-08-27T05:20:06.168Z,975.40
2023-08-27T05:21:06.126Z,975.40
2023-08-27T05:22:06.126Z,975.46
2023-08-27T05:23:06.150Z,975.35
2023-08-27T05:24:06.090Z,975.28
2023-08-27T05:25:06.091Z,975.28
2023-08-27T05:26:06.080Z,975.27
2023-08-27T05:27:06.138Z,975.22
2023-08-27T05:28:07.054Z,975.26
2023-08-27T05:29:06.057Z,975.29
2023-08-27T05:30:06.045Z,975.25
2023-08-27T05:31:07.045Z,975.26
2023-08-27T05:32:06.014Z,975.22
2023-08-27T05:33:08.690Z,975.27
2023-08-27T05:34:07.013Z,975.29
2023-08-27T05:35:05.986Z,975.35
2023-08-27T05:36:05.956Z,975.35
2023-08-27T05:37:05.965Z,975.33
2023-08-27T05:38:05.950Z,975.32
2023-08-27T05:39:06.010Z,975.33
2023-08-27T05:40:05.921Z,975.20
2023-08-27T05:41:05.927Z,975.29
2023-08-27T05:42:05.913Z,975.22
2023-08-27T05:43:05.914Z,975.22
2023-08-27T05:44:05.930Z,975.27
2023-08-27T05:45:05.876Z,975.22
2023-08-27T05:46:05.864Z,975.19
2023-08-27T05:47:05.862Z,975.20
2023-08-27T05:48:05.884Z,975.11
2023-08-27T05:49:05.845Z,975.13
2023-08-27T05:50:05.820Z,975.19
2023-08-27T05:51:05.814Z,975.21
2023-08-27T05:52:05.804Z,975.25
2023-08-27T05:53:05.810Z,975.27
2023-08-27T05:54:05.788Z,975.31
2023-08-27T05:55:05.775Z,975.31
2023-08-27T05:56:05.758Z,975.23
2023-08-27T05:57:05.750Z,975.30
2023-08-27T05:58:05.765Z,975.24
2023-08-27T05:59:05.736Z,975.27
2023-08-27T06:00:05.731Z,975.32
2023-08-27T06:01:05.772Z,975.31
2023-08-27T06:02:05.733Z,975.34
2023-08-27T06:03:05.743Z,975.29
2023-08-27T06:04:05.667Z,975.33
2023-08-27T06:05:05.663Z,975.24
2023-08-27T06:06:05.665Z,975.22
2023-08-27T06:07:05.897Z,975.21
2023-08-27T06:08:05.638Z,975.23
2023-08-27T06:09:05.624Z,975.31
2023-08-27T06:10:05.608Z,975.27
2023-08-27T06:11:05.608Z,975.33
2023-08-27T06:12:05.591Z,975.43
2023-08-27T06:13:05.585Z,975.39
2023-08-27T06:14:05.570Z,975.42
2023-08-27T06:15:05.608Z,975.36
2023-08-27T06:16:05.566Z,975.39
2023-08-27T06:17:05.560Z,975.41
2023-08-27T06:18:05.570Z,975.41
2023-08-27T06:19:05.525Z,975.41
2023-08-27T06:20:05.502Z,975.50
2023-08-27T06:21:05.540Z,975.55
2023-08-27T06:22:05.495Z,975.63
2023-08-27T06:23:05.485Z,975.62
2023-08-27T06:24:06.458Z,975.67
2023-08-27T06:25:05.466Z,975.64
2023-08-27T06:26:05.454Z,975.60
2023-08-27T06:27:05.446Z,975.55
2023-08-27T06:28:05.514Z,975.44
2023-08-27T06:29:05.407Z,975.40
2023-08-27T06:30:05.564Z,975.40
2023-08-27T06:31:05.457Z,975.36
2023-08-27T06:32:05.500Z,975.35
2023-08-27T06:33:05.379Z,975.39
2023-08-27T06:34:05.363Z,975.33
2023-08-27T06:35:05.378Z,975.31
2023-08-27T06:36:05.325Z,975.27
2023-08-27T06:37:05.320Z,975.24
2023-08-27T06:38:05.314Z,975.18
2023-08-27T06:39:05.311Z,975.17
2023-08-27T06:40:05.303Z,975.16
2023-08-27T06:41:05.289Z,975.21
2023-08-27T06:42:05.288Z,975.24
2023-08-27T06:43:05.258Z,975.27
2023-08-27T06:44:05.263Z,975.21
2023-08-27T06:45:05.262Z,975.27
2023-08-27T06:46:05.249Z,975.25
2023-08-27T06:47:05.229Z,975.29
2023-08-27T06:48:05.439Z,975.30
2023-08-27T06:49:05.213Z,975.23
2023-08-27T06:50:05.182Z,975.20
2023-08-27T06:51:05.178Z,975.17
2023-08-27T06:52:05.244Z,975.11
2023-08-27T06:53:05.159Z,975.12
2023-08-27T06:54:05.204Z,975.11
2023-08-27T06:55:05.200Z,975.06
2023-08-27T06:56:05.129Z,975.02
2023-08-27T06:57:05.110Z,974.91
2023-08-27T06:58:05.165Z,974.82
2023-08-27T06:59:05.113Z,974.81
2023-08-27T07:00:05.084Z,974.79
2023-08-27T07:01:05.127Z,974.75
2023-08-27T07:02:05.059Z,974.76
2023-08-27T07:03:05.118Z,974.83
2023-08-27T07:04:05.049Z,974.88
2023-08-27T07:05:05.028Z,974.84
2023-08-27T07:06:05.015Z,974.77
2023-08-27T07:07:05.015Z,974.75
2023-08-27T07:08:05.007Z,974.74
2023-08-27T07:09:04.994Z,974.76
2023-08-27T07:10:04.989Z,974.81
2023-08-27T07:11:04.963Z,974.84
2023-08-27T07:12:05.139Z,974.88
2023-08-27T07:13:04.961Z,974.91
2023-08-27T07:14:04.941Z,974.95
2023-08-27T07:15:04.941Z,974.95
2023-08-27T07:16:04.927Z,975.00
2023-08-27T07:17:04.924Z,974.98
2023-08-27T07:18:04.942Z,974.92
2023-08-27T07:19:04.876Z,974.97
2023-08-27T07:20:04.886Z,974.81
2023-08-27T07:21:04.877Z,974.88
2023-08-27T07:22:04.872Z,974.94
2023-08-27T07:23:04.832Z,974.92
2023-08-27T07:24:04.836Z,974.92
2023-08-27T07:25:04.857Z,974.91
2023-08-27T07:26:04.815Z,974.98
2023-08-27T07:27:04.823Z,975.03
2023-08-27T07:28:04.789Z,975.07
2023-08-27T07:29:04.785Z,975.12
2023-08-27T07:30:04.803Z,975.22
2023-08-27T07:31:04.819Z,975.27
2023-08-27T07:32:04.769Z,975.32
2023-08-27T07:33:04.799Z,975.32
2023-08-27T07:34:04.731Z,975.34
2023-08-27T07:35:04.731Z,975.32
2023-08-27T07:36:04.748Z,975.16
2023-08-27T07:37:06.239Z,975.14
2023-08-27T07:38:04.712Z,975.20
2023-08-27T07:39:04.694Z,975.16
2023-08-27T07:40:14.159Z,975.22
2023-08-27T07:41:04.669Z,975.25
2023-08-27T07:42:04.646Z,975.21
2023-08-27T07:43:04.638Z,975.20
2023-08-27T07:44:04.642Z,975.14
2023-08-27T07:45:04.630Z,975.04
2023-08-27T07:46:04.627Z,975.00
2023-08-27T07:47:04.591Z,975.03
2023-08-27T07:48:04.769Z,975.05
2023-08-27T07:49:04.583Z,975.04
2023-08-27T07:50:04.581Z,975.04
2023-08-27T07:51:04.550Z,975.00
2023-08-27T07:52:04.556Z,975.04
2023-08-27T07:53:04.537Z,975.10
2023-08-27T07:54:04.547Z,975.03
2023-08-27T07:55:04.554Z,975.04
2023-08-27T07:56:04.511Z,975.15
2023-08-27T07:57:04.483Z,975.18
2023-08-27T07:58:04.491Z,975.20
2023-08-27T07:59:04.497Z,975.23
2023-08-27T08:00:04.478Z,975.25
2023-08-27T08:01:04.499Z,975.24
2023-08-27T08:02:04.445Z,975.25
2023-08-27T08:03:04.565Z,975.25
2023-08-27T08:04:04.453Z,975.22
2023-08-27T08:05:04.397Z,975.23
2023-08-27T08:06:04.402Z,975.24
2023-08-27T08:07:04.399Z,975.23
2023-08-27T08:08:04.395Z,975.20
2023-08-27T08:09:04.388Z,975.18
2023-08-27T08:10:04.355Z,975.13
2023-08-27T08:11:04.365Z,975.15
2023-08-27T08:12:04.346Z,975.22
2023-08-27T08:13:04.332Z,975.11
2023-08-27T08:14:04.325Z,975.11
2023-08-27T08:15:04.313Z,975.07
2023-08-27T08:16:04.304Z,975.04
2023-08-27T08:17:04.285Z,975.01
2023-08-27T08:18:04.604Z,974.97
2023-08-27T08:19:04.268Z,975.06
2023-08-27T08:20:04.258Z,975.16
2023-08-27T08:21:04.241Z,975.22
2023-08-27T08:22:04.253Z,975.29
2023-08-27T08:23:04.241Z,975.29
2023-08-27T08:24:04.214Z,975.33
2023-08-27T08:25:05.226Z,975.28
2023-08-27T08:26:04.219Z,975.34
2023-08-27T08:27:04.213Z,975.37
2023-08-27T08:28:04.166Z,975.39
2023-08-27T08:29:04.146Z,975.42
2023-08-27T08:30:05.166Z,975.47
2023-08-27T08:31:04.185Z,975.43
2023-08-27T08:32:04.150Z,975.42
2023-08-27T08:33:04.194Z,975.48
2023-08-27T08:34:04.111Z,975.47
2023-08-27T08:35:04.101Z,975.43
2023-08-27T08:36:04.098Z,975.50
2023-08-27T08:37:04.078Z,975.49
2023-08-27T08:38:04.063Z,975.40
2023-08-27T08:39:04.051Z,975.31
2023-08-27T08:40:04.058Z,975.30
2023-08-27T08:41:04.051Z,975.30
2023-08-27T08:42:04.025Z,975.28
2023-08-27T08:43:04.048Z,975.27
2023-08-27T08:44:04.012Z,975.23
2023-08-27T08:45:03.984Z,975.30
2023-08-27T08:46:04.027Z,975.29
2023-08-27T08:47:03.964Z,975.32
2023-08-27T08:48:04.144Z,975.35
2023-08-27T08:49:03.948Z,975.30
2023-08-27T08:50:03.941Z,975.31
2023-08-27T08:51:03.944Z,975.24
2023-08-27T08:52:03.922Z,975.20
2023-08-27T08:53:03.905Z,975.09
2023-08-27T08:54:03.891Z,975.25
2023-08-27T08:55:03.898Z,975.21
2023-08-27T08:56:03.886Z,975.15
2023-08-27T08:57:03.861Z,975.17
2023-08-27T08:58:04.053Z,975.18
2023-08-27T08:59:03.951Z,975.24
2023-08-27T09:00:03.872Z,975.26
2023-08-27T09:01:03.814Z,975.18
2023-08-27T09:02:03.858Z,975.22
2023-08-27T09:03:03.833Z,975.38
2023-08-27T09:04:03.815Z,975.23
2023-08-27T09:05:03.825Z,975.26
2023-08-27T09:06:03.849Z,975.27
2023-08-27T09:07:03.762Z,975.27
2023-08-27T09:08:03.747Z,975.19
2023-08-27T09:09:03.762Z,975.15
2023-08-27T09:10:03.742Z,975.17
2023-08-27T09:11:03.724Z,975.13
2023-08-27T09:12:03.743Z,975.10
2023-08-27T09:13:03.705Z,975.13
2023-08-27T09:14:03.736Z,975.05
2023-08-27T09:15:03.685Z,974.98
2023-08-27T09:16:03.722Z,974.94
2023-08-27T09:17:03.665Z,974.94
2023-08-27T09:18:04.227Z,975.00
2023-08-27T09:19:03.656Z,975.07
2023-08-27T09:20:03.641Z,975.06
2023-08-27T09:21:03.616Z,975.05
2023-08-27T09:22:03.614Z,975.04
2023-08-27T09:23:03.677Z,975.05
2023-08-27T09:24:03.598Z,975.05
2023-08-27T09:25:03.592Z,975.12
2023-08-27T09:26:03.586Z,975.19
2023-08-27T09:27:03.557Z,975.22
2023-08-27T09:28:03.588Z,975.23
2023-08-27T09:29:03.560Z,975.24
2023-08-27T09:30:03.544Z,975.26
2023-08-27T09:31:03.525Z,975.26
2023-08-27T09:32:03.787Z,975.16
2023-08-27T09:33:03.608Z,975.18
2023-08-27T09:34:03.499Z,975.18
2023-08-27T09:35:03.474Z,975.22
2023-08-27T09:36:03.474Z,975.20
2023-08-27T09:37:03.477Z,975.23
2023-08-27T09:38:03.492Z,975.26
2023-08-27T09:39:03.449Z,975.20
2023-08-27T09:40:03.462Z,975.14
2023-08-27T09:41:03.428Z,975.12
2023-08-27T09:42:03.431Z,975.11
2023-08-27T09:43:03.431Z,975.10
2023-08-27T09:44:03.396Z,975.10
2023-08-27T09:45:03.402Z,975.07
2023-08-27T09:46:03.433Z,975.02
2023-08-27T09:47:03.384Z,975.05
2023-08-27T09:48:03.853Z,975.07
2023-08-27T09:49:03.353Z,975.02
2023-08-27T09:50:03.351Z,975.04
2023-08-27T09:51:03.351Z,975.06
2023-08-27T09:52:03.345Z,975.06
2023-08-27T09:53:03.304Z,975.00
2023-08-27T09:54:03.298Z,975.03
2023-08-27T09:55:03.301Z,975.01
2023-08-27T09:56:03.296Z,974.98
2023-08-27T09:57:03.309Z,975.00
2023-08-27T09:58:03.267Z,974.97
2023-08-27T09:59:03.249Z,975.06
2023-08-27T10:00:03.247Z,975.05
2023-08-27T10:01:03.287Z,974.99
2023-08-27T10:02:03.231Z,974.94
2023-08-27T10:03:03.246Z,974.86
2023-08-27T10:04:03.328Z,974.86
2023-08-27T10:05:03.216Z,974.98
2023-08-27T10:06:03.195Z,974.90
2023-08-27T10:07:03.174Z,974.88
2023-08-27T10:08:03.292Z,974.82
2023-08-27T10:09:03.152Z,974.78
2023-08-27T10:10:03.151Z,974.75
2023-08-27T10:11:03.140Z,974.70
2023-08-27T10:12:04.420Z,974.74
2023-08-27T10:13:04.111Z,974.75
2023-08-27T10:14:03.111Z,974.77
2023-08-27T10:15:03.126Z,974.74
2023-08-27T10:16:03.109Z,974.83
2023-08-27T10:17:03.079Z,974.81
2023-08-27T10:18:03.376Z,974.80
2023-08-27T10:19:03.077Z,974.83
2023-08-27T10:20:03.089Z,974.81
2023-08-27T10:21:03.029Z,974.76
2023-08-27T10:22:03.032Z,974.78
2023-08-27T10:23:03.028Z,974.71
2023-08-27T10:24:03.046Z,974.71
2023-08-27T10:25:03.013Z,974.64
2023-08-27T10:26:02.990Z,974.62
2023-08-27T10:27:03.000Z,974.70
2023-08-27T10:28:03.249Z,974.63
2023-08-27T10:29:02.971Z,974.66
2023-08-27T10:30:02.961Z,974.64
2023-08-27T10:31:03.003Z,974.61
2023-08-27T10:32:02.927Z,974.66
2023-08-27T10:33:02.939Z,974.63
2023-08-27T10:34:02.924Z,974.62
2023-08-27T10:35:02.913Z,974.53
2023-08-27T10:36:02.902Z,974.46
2023-08-27T10:37:02.884Z,974.45
2023-08-27T10:38:03.413Z,974.48
2023-08-27T10:39:02.894Z,974.51
2023-08-27T10:40:02.848Z,974.43
2023-08-27T10:41:02.855Z,974.47
2023-08-27T10:42:02.836Z,974.44
2023-08-27T10:43:02.836Z,974.40
2023-08-27T10:44:02.834Z,974.31
2023-08-27T10:45:02.809Z,974.28
2023-08-27T10:46:02.885Z,974.26
2023-08-27T10:47:02.804Z,974.27
2023-08-27T10:48:03.134Z,974.26
2023-08-27T10:49:02.801Z,974.33
2023-08-27T10:50:02.760Z,974.36
2023-08-27T10:51:02.758Z,974.30
2023-08-27T10:52:02.749Z,974.40
2023-08-27T10:53:02.727Z,974.36
2023-08-27T10:54:02.810Z,974.39
2023-08-27T10:55:02.705Z,974.36
2023-08-27T10:56:02.770Z,974.31
2023-08-27T10:57:02.700Z,974.34
2023-08-27T10:58:02.677Z,974.34
2023-08-27T10:59:02.670Z,974.35
2023-08-27T11:00:05.712Z,974.33
2023-08-27T11:01:02.709Z,974.31
2023-08-27T11:02:02.666Z,974.33
2023-08-27T11:03:02.657Z,974.37
2023-08-27T11:04:02.671Z,974.35
2023-08-27T11:05:02.618Z,974.34
2023-08-27T11:06:03.828Z,974.24
2023-08-27T11:07:03.593Z,974.30
2023-08-27T11:08:02.954Z,974.34
2023-08-27T11:09:05.688Z,974.34
2023-08-27T11:10:03.571Z,974.32
2023-08-27T11:11:02.571Z,974.24
2023-08-27T11:12:02.604Z,974.26
2023-08-27T11:13:02.535Z,974.18
2023-08-27T11:14:10.853Z,974.17
2023-08-27T11:15:04.531Z,974.10
2023-08-27T11:16:02.533Z,974.11
2023-08-27T11:17:02.556Z,974.17
2023-08-27T11:18:02.790Z,974.18
2023-08-27T11:19:02.483Z,974.10
2023-08-27T11:20:02.470Z,974.10
2023-08-27T11:21:02.464Z,974.12
2023-08-27T11:22:02.441Z,974.15
2023-08-27T11:23:02.448Z,974.06
2023-08-27T11:24:02.435Z,974.11
2023-08-27T11:25:02.425Z,974.13
2023-08-27T11:26:02.401Z,974.17
2023-08-27T11:27:02.392Z,974.23
2023-08-27T11:28:02.816Z,974.21
2023-08-27T11:29:02.387Z,974.21
2023-08-27T11:30:02.439Z,974.22
2023-08-27T11:31:02.416Z,974.18
2023-08-27T11:32:02.349Z,974.27
2023-08-27T11:33:02.359Z,974.29
2023-08-27T11:34:02.350Z,974.35
2023-08-27T11:35:02.325Z,974.30
2023-08-27T11:36:02.299Z,974.27
2023-08-27T11:37:02.320Z,974.24
2023-08-27T11:38:02.599Z,974.27
2023-08-27T11:39:02.284Z,974.28
2023-08-27T11:40:02.289Z,974.34
2023-08-27T11:41:02.277Z,974.30
2023-08-27T11:42:02.252Z,974.28
2023-08-27T11:43:02.248Z,974.22
2023-08-27T11:44:02.272Z,974.23
2023-08-27T11:45:02.222Z,974.15
2023-08-27T11:46:02.251Z,974.20
2023-08-27T11:47:02.205Z,974.20
2023-08-27T11:48:02.681Z,974.11
2023-08-27T11:49:02.197Z,974.12
2023-08-27T11:50:02.174Z,974.10
2023-08-27T11:51:02.177Z,974.11
2023-08-27T11:52:02.163Z,974.16
2023-08-27T11:53:02.172Z,974.19
2023-08-27T11:54:02.141Z,974.19
2023-08-27T11:55:02.122Z,974.24
2023-08-27T11:56:02.113Z,974.27
2023-08-27T11:57:02.121Z,974.33
2023-08-27T11:58:02.726Z,974.32
2023-08-27T11:59:02.080Z,974.30
2023-08-27T12:00:02.089Z,974.27
2023-08-27T12:01:02.112Z,974.28
2023-08-27T12:02:02.077Z,974.27
2023-08-27T12:03:02.175Z,974.26
2023-08-27T12:04:02.060Z,974.26
2023-08-27T12:05:02.062Z,974.19
2023-08-27T12:06:02.027Z,974.24
2023-08-27T12:07:02.133Z,974.28
2023-08-27T12:08:02.224Z,974.37
2023-08-27T12:09:02.000Z,974.32
2023-08-27T12:10:02.983Z,974.34
2023-08-27T12:11:01.978Z,974.21
2023-08-27T12:12:01.983Z,974.21
2023-08-27T12:13:01.943Z,974.18
2023-08-27T12:14:01.940Z,974.20
2023-08-27T12:15:01.977Z,974.21
2023-08-27T12:16:01.937Z,974.28
2023-08-27T12:17:01.911Z,974.32
2023-08-27T12:18:02.181Z,974.24
2023-08-27T12:19:01.892Z,974.18
2023-08-27T12:20:01.887Z,974.28
2023-08-27T12:21:02.267Z,974.24
2023-08-27T12:22:01.868Z,974.27
2023-08-27T12:23:01.859Z,974.36
2023-08-27T12:24:01.841Z,974.34
2023-08-27T12:25:01.845Z,974.33
2023-08-27T12:26:01.857Z,974.29
2023-08-27T12:27:01.824Z,974.28
2023-08-27T12:28:01.945Z,974.23